Cedar Bluffs, NE

6:37 AM CST on February 08, 2016 (GMT -0600)
APRSWXNET | | Change Station
CLOSE
Current Station
Personal Weather Station
Location: Cedar Bluffs, NE
Elevation: 1246 ft
Nearby Weather Stations
Active Advisory: Wind Advisory Active Notice: Local Storm Report

Elev 1246 ft 41.35 °N, 96.58 °W | Updated 20 minutes ago

Overcast
Overcast
28 °F
Feels Like 16 °F
N
17
Wind Variable Wind from North
Gusts 26.0 mph

Today
High -- | Low -- °F
--% Chance of Precip.
Yesterday
High -- | Low -- °F
Precip. -- in
Pressure 30.06 in
Visibility 10.0 miles
Clouds Mostly Cloudy 3200 ft
Mostly Cloudy 3800 ft
Overcast 4600 ft
Windchill 16 °F
Dew Point 25 °F
Humidity 87%
Rainfall in
Snow Depth Not available.
7:30 AM 5:50 PM
Waning Crescent, 0% visible
METAR KFET 081215Z AUTO 32022G29KT 10SM BKN032 BKN038 OVC046 M02/M07 A3006 RMK AO2 T10221070
Pressure 30.06 in
Visibility 10.0 miles
Clouds Mostly Cloudy 3200 ft
Mostly Cloudy 3800 ft
Overcast 4600 ft
Windchill 16 °F
Dew Point 25 °F
Humidity 87%
Rainfall in
Snow Depth Not available.
7:30 AM 5:50 PM
Waning Crescent, 0% visible
METAR KFET 081215Z AUTO 32022G29KT 10SM BKN032 BKN038 OVC046 M02/M07 A3006 RMK AO2 T10221070

10-Day Weather Forecast

Almanac

Astronomy

Feb. 08, 2016 Rise Set
Actual Time
Civil Twilight
Nautical Twilight
Astronomical Twilight
Moon
Length of Visible Light
Length of Day
Tomorrow will be .
, % of the Moon is Illuminated

Today's Extremes

State Highs State Lows

Community

WunderPhotos

Upload Photos

1,891,426 photos uploaded!

WunderBlog® & News

Nearby

Air Quality

  Air Quality AQ Index Pollutant
Not available.

Snow Depth

Station Depth Elevation

Earthquake Activity

City Distance Mag. Time & Date
Minimum magnitude displayed is 2.5.

Coastal Water Temperatures

Place Temperature

Stations

Nearby Weather Stations

Station Location Temp. Windchill Dew Point Humidity Wind Precip. Elev Updated Type
                   

Watches & Warnings

Wind Advisory
Issued: 4:10 AM CST Feb. 8, 2016 – National Weather Service

... Wind Advisory remains in effect until 5 PM CST this
afternoon...

* timing... strong northwest winds will continue through this
afternoon before diminishing by evening.

* Winds... northwest winds of 25 to 35 mph with gusts to 45 mph.

* Impacts... winds of this magnitude will be hazardous to
motorists... especially those with high profile vehicles. In
addition... areas of blowing snow may create hazardous travel
conditions in parts of the area.

Precautionary/preparedness actions...

A Wind Advisory means that sustained wind speeds between 30 to
39 mph or gusts between 45 to 57 mph are expected. Winds this
strong can make driving difficult... especially for high profile
vehicles. Use extra caution.